sensor_id;sensor_type;location;lat;lon;timestamp;P1;durP1;ratioP1;P2;durP2;ratioP2
82372;SDS011;72000;42.828;23.382;2024-01-27T00:01:35;7.53;;;1.73;;
82372;SDS011;72000;42.828;23.382;2024-01-27T00:04:01;5.22;;;1.73;;
82372;SDS011;72000;42.828;23.382;2024-01-27T00:06:27;6.85;;;1.70;;
82372;SDS011;72000;42.828;23.382;2024-01-27T00:08:52;6.63;;;1.95;;
82372;SDS011;72000;42.828;23.382;2024-01-27T00:11:18;8.30;;;1.73;;
82372;SDS011;72000;42.828;23.382;2024-01-27T00:13:44;6.15;;;1.60;;
82372;SDS011;72000;42.828;23.382;2024-01-27T00:16:10;4.00;;;1.50;;
82372;SDS011;72000;42.828;23.382;2024-01-27T00:18:36;6.68;;;1.75;;
82372;SDS011;72000;42.828;23.382;2024-01-27T00:21:02;3.95;;;1.60;;
82372;SDS011;72000;42.828;23.382;2024-01-27T00:23:27;7.10;;;1.60;;
82372;SDS011;72000;42.828;23.382;2024-01-27T00:25:53;6.10;;;1.60;;
82372;SDS011;72000;42.828;23.382;2024-01-27T00:28:18;6.70;;;1.73;;
82372;SDS011;72000;42.828;23.382;2024-01-27T00:30:44;5.25;;;1.52;;
82372;SDS011;72000;42.828;23.382;2024-01-27T00:33:10;7.22;;;1.38;;
82372;SDS011;72000;42.828;23.382;2024-01-27T00:35:35;6.97;;;1.55;;
82372;SDS011;72000;42.828;23.382;2024-01-27T00:38:01;4.53;;;1.60;;
82372;SDS011;72000;42.828;23.382;2024-01-27T00:40:26;4.82;;;1.63;;
82372;SDS011;72000;42.828;23.382;2024-01-27T00:42:52;5.35;;;1.70;;
82372;SDS011;72000;42.828;23.382;2024-01-27T00:45:19;9.68;;;1.63;;
82372;SDS011;72000;42.828;23.382;2024-01-27T00:47:45;5.43;;;1.52;;
82372;SDS011;72000;42.828;23.382;2024-01-27T00:50:11;4.07;;;1.52;;
82372;SDS011;72000;42.828;23.382;2024-01-27T00:52:36;5.60;;;1.40;;
82372;SDS011;72000;42.828;23.382;2024-01-27T00:55:02;3.83;;;1.50;;
82372;SDS011;72000;42.828;23.382;2024-01-27T00:57:28;5.78;;;1.42;;
82372;SDS011;72000;42.828;23.382;2024-01-27T00:59:54;3.53;;;1.48;;
82372;SDS011;72000;42.828;23.382;2024-01-27T01:02:19;5.03;;;1.67;;
82372;SDS011;72000;42.828;23.382;2024-01-27T01:04:45;8.13;;;1.83;;
82372;SDS011;72000;42.828;23.382;2024-01-27T01:07:10;4.63;;;1.63;;
82372;SDS011;72000;42.828;23.382;2024-01-27T01:09:36;4.90;;;1.45;;
82372;SDS011;72000;42.828;23.382;2024-01-27T01:12:01;4.07;;;1.50;;
82372;SDS011;72000;42.828;23.382;2024-01-27T01:14:27;4.38;;;1.67;;
82372;SDS011;72000;42.828;23.382;2024-01-27T01:16:53;5.57;;;1.63;;
82372;SDS011;72000;42.828;23.382;2024-01-27T01:19:18;6.05;;;2.08;;
82372;SDS011;72000;42.828;23.382;2024-01-27T01:21:44;9.52;;;2.63;;
82372;SDS011;72000;42.828;23.382;2024-01-27T01:24:10;7.80;;;2.10;;
82372;SDS011;72000;42.828;23.382;2024-01-27T01:26:35;5.03;;;1.90;;
82372;SDS011;72000;42.828;23.382;2024-01-27T01:29:01;7.32;;;1.90;;
82372;SDS011;72000;42.828;23.382;2024-01-27T01:31:26;7.53;;;1.80;;
82372;SDS011;72000;42.828;23.382;2024-01-27T01:33:52;5.97;;;1.75;;
82372;SDS011;72000;42.828;23.382;2024-01-27T01:36:18;5.28;;;1.70;;
82372;SDS011;72000;42.828;23.382;2024-01-27T01:38:43;6.97;;;1.60;;
82372;SDS011;72000;42.828;23.382;2024-01-27T01:41:09;6.85;;;2.10;;
82372;SDS011;72000;42.828;23.382;2024-01-27T01:43:34;8.50;;;1.90;;
82372;SDS011;72000;42.828;23.382;2024-01-27T01:46:00;5.43;;;1.88;;
82372;SDS011;72000;42.828;23.382;2024-01-27T01:48:28;5.63;;;1.80;;
82372;SDS011;72000;42.828;23.382;2024-01-27T01:50:54;5.13;;;1.70;;
82372;SDS011;72000;42.828;23.382;2024-01-27T01:53:20;6.45;;;1.50;;
82372;SDS011;72000;42.828;23.382;2024-01-27T01:55:47;6.15;;;1.60;;
82372;SDS011;72000;42.828;23.382;2024-01-27T01:58:12;6.78;;;1.65;;
82372;SDS011;72000;42.828;23.382;2024-01-27T02:00:38;4.55;;;1.88;;
82372;SDS011;72000;42.828;23.382;2024-01-27T02:03:03;5.18;;;1.88;;
82372;SDS011;72000;42.828;23.382;2024-01-27T02:05:30;6.03;;;1.88;;
82372;SDS011;72000;42.828;23.382;2024-01-27T02:07:56;4.65;;;1.65;;
82372;SDS011;72000;42.828;23.382;2024-01-27T02:10:25;9.00;;;1.88;;
82372;SDS011;72000;42.828;23.382;2024-01-27T02:12:50;6.15;;;1.60;;
82372;SDS011;72000;42.828;23.382;2024-01-27T02:15:16;4.88;;;1.90;;
82372;SDS011;72000;42.828;23.382;2024-01-27T02:17:41;5.10;;;2.05;;
82372;SDS011;72000;42.828;23.382;2024-01-27T02:20:07;7.82;;;2.80;;
82372;SDS011;72000;42.828;23.382;2024-01-27T02:22:33;9.13;;;3.10;;
82372;SDS011;72000;42.828;23.382;2024-01-27T02:25:00;7.78;;;2.20;;
82372;SDS011;72000;42.828;23.382;2024-01-27T02:27:26;6.45;;;2.00;;
82372;SDS011;72000;42.828;23.382;2024-01-27T02:29:51;5.53;;;1.70;;
82372;SDS011;72000;42.828;23.382;2024-01-27T02:32:17;8.38;;;2.25;;
82372;SDS011;72000;42.828;23.382;2024-01-27T02:34:42;6.93;;;1.77;;
82372;SDS011;72000;42.828;23.382;2024-01-27T02:37:08;5.85;;;1.75;;
82372;SDS011;72000;42.828;23.382;2024-01-27T02:39:34;8.18;;;2.17;;
82372;SDS011;72000;42.828;23.382;2024-01-27T02:42:00;7.80;;;2.00;;
82372;SDS011;72000;42.828;23.382;2024-01-27T02:44:25;6.85;;;2.00;;
82372;SDS011;72000;42.828;23.382;2024-01-27T02:46:51;6.57;;;1.90;;
82372;SDS011;72000;42.828;23.382;2024-01-27T02:49:16;5.65;;;2.00;;
82372;SDS011;72000;42.828;23.382;2024-01-27T02:51:42;7.57;;;2.05;;
82372;SDS011;72000;42.828;23.382;2024-01-27T02:56:34;5.70;;;1.77;;
82372;SDS011;72000;42.828;23.382;2024-01-27T02:59:00;8.20;;;1.90;;
82372;SDS011;72000;42.828;23.382;2024-01-27T03:01:25;8.43;;;1.95;;
82372;SDS011;72000;42.828;23.382;2024-01-27T03:03:51;9.38;;;2.00;;
82372;SDS011;72000;42.828;23.382;2024-01-27T03:06:16;8.30;;;2.00;;
82372;SDS011;72000;42.828;23.382;2024-01-27T03:08:42;7.63;;;1.90;;
82372;SDS011;72000;42.828;23.382;2024-01-27T03:11:07;7.28;;;1.92;;
82372;SDS011;72000;42.828;23.382;2024-01-27T03:13:33;7.68;;;1.98;;
82372;SDS011;72000;42.828;23.382;2024-01-27T03:15:58;7.70;;;1.83;;
82372;SDS011;72000;42.828;23.382;2024-01-27T03:18:24;6.93;;;2.00;;
82372;SDS011;72000;42.828;23.382;2024-01-27T03:20:50;6.70;;;2.10;;
82372;SDS011;72000;42.828;23.382;2024-01-27T03:23:15;6.85;;;2.15;;
82372;SDS011;72000;42.828;23.382;2024-01-27T03:25:41;8.18;;;2.00;;
82372;SDS011;72000;42.828;23.382;2024-01-27T03:28:07;8.48;;;1.98;;
82372;SDS011;72000;42.828;23.382;2024-01-27T03:30:32;8.23;;;1.90;;
82372;SDS011;72000;42.828;23.382;2024-01-27T03:32:58;7.65;;;1.95;;
82372;SDS011;72000;42.828;23.382;2024-01-27T03:35:23;6.75;;;2.30;;
82372;SDS011;72000;42.828;23.382;2024-01-27T03:37:49;6.40;;;2.20;;
82372;SDS011;72000;42.828;23.382;2024-01-27T03:40:14;6.90;;;1.88;;
82372;SDS011;72000;42.828;23.382;2024-01-27T03:42:40;6.10;;;1.92;;
82372;SDS011;72000;42.828;23.382;2024-01-27T03:45:05;6.50;;;1.77;;
82372;SDS011;72000;42.828;23.382;2024-01-27T03:47:31;4.80;;;1.52;;
82372;SDS011;72000;42.828;23.382;2024-01-27T03:49:57;7.47;;;2.17;;
82372;SDS011;72000;42.828;23.382;2024-01-27T03:52:22;10.20;;;2.15;;
82372;SDS011;72000;42.828;23.382;2024-01-27T03:54:48;6.88;;;2.10;;
82372;SDS011;72000;42.828;23.382;2024-01-27T03:57:13;8.38;;;2.30;;
82372;SDS011;72000;42.828;23.382;2024-01-27T03:59:42;8.35;;;2.15;;
82372;SDS011;72000;42.828;23.382;2024-01-27T04:02:07;9.52;;;2.50;;
82372;SDS011;72000;42.828;23.382;2024-01-27T04:04:33;6.93;;;2.20;;
82372;SDS011;72000;42.828;23.382;2024-01-27T04:06:58;8.98;;;2.22;;
82372;SDS011;72000;42.828;23.382;2024-01-27T04:09:27;7.10;;;2.10;;
82372;SDS011;72000;42.828;23.382;2024-01-27T04:11:52;9.80;;;2.33;;
82372;SDS011;72000;42.828;23.382;2024-01-27T04:14:18;6.78;;;2.08;;
82372;SDS011;72000;42.828;23.382;2024-01-27T04:16:43;7.68;;;2.38;;
82372;SDS011;72000;42.828;23.382;2024-01-27T04:19:09;7.25;;;2.40;;
82372;SDS011;72000;42.828;23.382;2024-01-27T04:21:34;9.15;;;2.30;;
82372;SDS011;72000;42.828;23.382;2024-01-27T04:24:00;5.80;;;2.00;;
82372;SDS011;72000;42.828;23.382;2024-01-27T04:26:25;8.77;;;1.98;;
82372;SDS011;72000;42.828;23.382;2024-01-27T04:28:51;10.18;;;2.20;;
82372;SDS011;72000;42.828;23.382;2024-01-27T04:31:16;7.22;;;2.22;;
82372;SDS011;72000;42.828;23.382;2024-01-27T04:33:42;7.88;;;2.53;;
82372;SDS011;72000;42.828;23.382;2024-01-27T04:36:07;9.23;;;2.50;;
82372;SDS011;72000;42.828;23.382;2024-01-27T04:38:34;11.77;;;2.78;;
82372;SDS011;72000;42.828;23.382;2024-01-27T04:41:00;8.38;;;2.40;;
82372;SDS011;72000;42.828;23.382;2024-01-27T04:43:26;8.95;;;2.80;;
82372;SDS011;72000;42.828;23.382;2024-01-27T04:45:51;8.55;;;2.80;;
82372;SDS011;72000;42.828;23.382;2024-01-27T04:48:17;10.27;;;2.60;;
82372;SDS011;72000;42.828;23.382;2024-01-27T04:50:42;12.07;;;3.00;;
82372;SDS011;72000;42.828;23.382;2024-01-27T04:53:08;8.10;;;2.53;;
82372;SDS011;72000;42.828;23.382;2024-01-27T04:55:33;7.03;;;2.50;;
82372;SDS011;72000;42.828;23.382;2024-01-27T04:57:59;8.27;;;2.70;;
82372;SDS011;72000;42.828;23.382;2024-01-27T05:00:27;7.30;;;2.60;;
82372;SDS011;72000;42.828;23.382;2024-01-27T05:02:53;6.93;;;2.47;;
82372;SDS011;72000;42.828;23.382;2024-01-27T05:05:19;8.10;;;2.72;;
82372;SDS011;72000;42.828;23.382;2024-01-27T05:07:44;5.82;;;2.17;;
82372;SDS011;72000;42.828;23.382;2024-01-27T05:10:10;5.95;;;2.22;;
82372;SDS011;72000;42.828;23.382;2024-01-27T05:12:37;10.30;;;2.78;;
82372;SDS011;72000;42.828;23.382;2024-01-27T05:15:02;7.10;;;2.53;;
82372;SDS011;72000;42.828;23.382;2024-01-27T05:17:28;8.77;;;2.47;;
82372;SDS011;72000;42.828;23.382;2024-01-27T05:19:53;8.05;;;2.90;;
82372;SDS011;72000;42.828;23.382;2024-01-27T05:22:19;6.38;;;2.88;;
82372;SDS011;72000;42.828;23.382;2024-01-27T05:24:45;10.40;;;3.00;;
82372;SDS011;72000;42.828;23.382;2024-01-27T05:27:10;7.88;;;2.63;;
82372;SDS011;72000;42.828;23.382;2024-01-27T05:29:39;8.43;;;2.80;;
82372;SDS011;72000;42.828;23.382;2024-01-27T05:32:04;8.18;;;2.80;;
82372;SDS011;72000;42.828;23.382;2024-01-27T05:34:30;8.10;;;2.35;;
82372;SDS011;72000;42.828;23.382;2024-01-27T05:36:55;8.00;;;3.00;;
82372;SDS011;72000;42.828;23.382;2024-01-27T05:39:21;8.18;;;3.25;;
82372;SDS011;72000;42.828;23.382;2024-01-27T05:41:46;7.07;;;2.85;;
82372;SDS011;72000;42.828;23.382;2024-01-27T05:44:12;11.18;;;2.90;;
82372;SDS011;72000;42.828;23.382;2024-01-27T05:46:37;6.68;;;2.67;;
82372;SDS011;72000;42.828;23.382;2024-01-27T05:49:03;8.98;;;3.17;;
82372;SDS011;72000;42.828;23.382;2024-01-27T05:51:28;8.73;;;2.88;;
82372;SDS011;72000;42.828;23.382;2024-01-27T05:56:21;8.77;;;3.00;;
82372;SDS011;72000;42.828;23.382;2024-01-27T05:58:46;7.38;;;3.40;;
82372;SDS011;72000;42.828;23.382;2024-01-27T06:01:12;9.10;;;3.10;;
82372;SDS011;72000;42.828;23.382;2024-01-27T06:03:38;7.60;;;3.60;;
82372;SDS011;72000;42.828;23.382;2024-01-27T06:06:06;8.13;;;2.88;;
82372;SDS011;72000;42.828;23.382;2024-01-27T06:08:32;8.55;;;3.03;;
82372;SDS011;72000;42.828;23.382;2024-01-27T06:10:57;6.68;;;2.63;;
82372;SDS011;72000;42.828;23.382;2024-01-27T06:13:23;5.70;;;2.70;;
82372;SDS011;72000;42.828;23.382;2024-01-27T06:15:48;9.35;;;2.95;;
82372;SDS011;72000;42.828;23.382;2024-01-27T06:18:14;7.10;;;2.47;;
82372;SDS011;72000;42.828;23.382;2024-01-27T06:20:39;7.95;;;2.78;;
82372;SDS011;72000;42.828;23.382;2024-01-27T06:23:05;8.27;;;3.00;;
82372;SDS011;72000;42.828;23.382;2024-01-27T06:25:32;8.70;;;3.10;;
82372;SDS011;72000;42.828;23.382;2024-01-27T06:28:00;7.05;;;2.88;;
82372;SDS011;72000;42.828;23.382;2024-01-27T06:30:26;8.05;;;3.03;;
82372;SDS011;72000;42.828;23.382;2024-01-27T06:32:51;6.68;;;2.85;;
82372;SDS011;72000;42.828;23.382;2024-01-27T06:35:17;10.02;;;3.35;;
82372;SDS011;72000;42.828;23.382;2024-01-27T06:37:42;10.60;;;3.33;;
82372;SDS011;72000;42.828;23.382;2024-01-27T06:40:08;8.75;;;3.30;;
82372;SDS011;72000;42.828;23.382;2024-01-27T06:42:34;8.23;;;3.50;;
82372;SDS011;72000;42.828;23.382;2024-01-27T06:45:00;5.80;;;2.38;;
82372;SDS011;72000;42.828;23.382;2024-01-27T06:47:26;6.90;;;2.60;;
82372;SDS011;72000;42.828;23.382;2024-01-27T06:49:51;7.75;;;2.70;;
82372;SDS011;72000;42.828;23.382;2024-01-27T06:52:17;8.05;;;2.72;;
82372;SDS011;72000;42.828;23.382;2024-01-27T06:54:42;9.82;;;3.30;;
82372;SDS011;72000;42.828;23.382;2024-01-27T06:57:18;10.85;;;3.80;;
82372;SDS011;72000;42.828;23.382;2024-01-27T06:59:46;14.23;;;5.60;;
82372;SDS011;72000;42.828;23.382;2024-01-27T07:02:17;10.10;;;3.42;;
82372;SDS011;72000;42.828;23.382;2024-01-27T07:04:43;11.45;;;4.18;;
82372;SDS011;72000;42.828;23.382;2024-01-27T07:07:09;15.88;;;6.82;;
82372;SDS011;72000;42.828;23.382;2024-01-27T07:09:34;14.82;;;4.53;;
82372;SDS011;72000;42.828;23.382;2024-01-27T07:12:00;9.40;;;3.83;;
82372;SDS011;72000;42.828;23.382;2024-01-27T07:14:25;10.43;;;3.70;;
82372;SDS011;72000;42.828;23.382;2024-01-27T07:16:51;7.57;;;2.65;;
82372;SDS011;72000;42.828;23.382;2024-01-27T07:19:16;8.38;;;2.72;;
82372;SDS011;72000;42.828;23.382;2024-01-27T07:21:42;7.07;;;3.00;;
82372;SDS011;72000;42.828;23.382;2024-01-27T07:24:07;8.20;;;3.33;;
82372;SDS011;72000;42.828;23.382;2024-01-27T07:26:33;7.80;;;3.20;;
82372;SDS011;72000;42.828;23.382;2024-01-27T07:28:58;10.63;;;3.85;;
82372;SDS011;72000;42.828;23.382;2024-01-27T07:31:25;10.13;;;3.60;;
82372;SDS011;72000;42.828;23.382;2024-01-27T07:33:51;11.90;;;3.90;;
82372;SDS011;72000;42.828;23.382;2024-01-27T07:36:17;9.60;;;3.50;;
82372;SDS011;72000;42.828;23.382;2024-01-27T07:38:42;9.40;;;3.70;;
82372;SDS011;72000;42.828;23.382;2024-01-27T07:41:08;11.23;;;3.50;;
82372;SDS011;72000;42.828;23.382;2024-01-27T07:43:33;7.03;;;2.80;;
82372;SDS011;72000;42.828;23.382;2024-01-27T07:45:59;8.63;;;3.00;;
82372;SDS011;72000;42.828;23.382;2024-01-27T07:48:24;7.95;;;2.97;;
82372;SDS011;72000;42.828;23.382;2024-01-27T07:50:50;10.30;;;3.60;;
82372;SDS011;72000;42.828;23.382;2024-01-27T07:53:16;8.82;;;3.33;;
82372;SDS011;72000;42.828;23.382;2024-01-27T07:55:42;10.40;;;3.72;;
82372;SDS011;72000;42.828;23.382;2024-01-27T07:58:07;7.95;;;2.95;;
82372;SDS011;72000;42.828;23.382;2024-01-27T08:00:33;4.75;;;1.85;;
82372;SDS011;72000;42.828;23.382;2024-01-27T08:02:58;6.13;;;2.38;;
82372;SDS011;72000;42.828;23.382;2024-01-27T08:05:24;6.45;;;2.60;;
82372;SDS011;72000;42.828;23.382;2024-01-27T08:07:49;4.75;;;1.98;;
82372;SDS011;72000;42.828;23.382;2024-01-27T08:10:15;5.55;;;2.10;;
82372;SDS011;72000;42.828;23.382;2024-01-27T08:12:40;3.70;;;1.70;;
82372;SDS011;72000;42.828;23.382;2024-01-27T08:15:06;4.28;;;1.67;;
82372;SDS011;72000;42.828;23.382;2024-01-27T08:17:32;6.53;;;2.20;;
82372;SDS011;72000;42.828;23.382;2024-01-27T08:19:58;7.05;;;1.98;;
82372;SDS011;72000;42.828;23.382;2024-01-27T08:22:24;3.97;;;1.85;;
82372;SDS011;72000;42.828;23.382;2024-01-27T08:24:50;4.68;;;1.65;;
82372;SDS011;72000;42.828;23.382;2024-01-27T08:27:15;5.97;;;2.33;;
82372;SDS011;72000;42.828;23.382;2024-01-27T08:29:41;5.35;;;2.17;;
82372;SDS011;72000;42.828;23.382;2024-01-27T08:32:06;7.28;;;2.35;;
82372;SDS011;72000;42.828;23.382;2024-01-27T08:34:32;6.85;;;3.03;;
82372;SDS011;72000;42.828;23.382;2024-01-27T08:36:59;8.05;;;3.03;;
82372;SDS011;72000;42.828;23.382;2024-01-27T08:39:25;6.75;;;2.28;;
82372;SDS011;72000;42.828;23.382;2024-01-27T08:41:51;6.57;;;2.90;;
82372;SDS011;72000;42.828;23.382;2024-01-27T08:44:16;6.82;;;2.70;;
82372;SDS011;72000;42.828;23.382;2024-01-27T08:46:42;8.68;;;2.80;;
82372;SDS011;72000;42.828;23.382;2024-01-27T08:49:08;4.88;;;2.17;;
82372;SDS011;72000;42.828;23.382;2024-01-27T08:51:34;6.32;;;2.35;;
82372;SDS011;72000;42.828;23.382;2024-01-27T08:54:00;4.90;;;2.03;;
82372;SDS011;72000;42.828;23.382;2024-01-27T08:56:25;5.68;;;2.10;;
82372;SDS011;72000;42.828;23.382;2024-01-27T08:58:51;5.40;;;2.33;;
82372;SDS011;72000;42.828;23.382;2024-01-27T09:01:17;4.10;;;1.80;;
82372;SDS011;72000;42.828;23.382;2024-01-27T09:03:43;3.53;;;1.48;;
82372;SDS011;72000;42.828;23.382;2024-01-27T09:06:09;4.78;;;2.00;;
82372;SDS011;72000;42.828;23.382;2024-01-27T09:08:34;4.97;;;1.80;;
82372;SDS011;72000;42.828;23.382;2024-01-27T09:11:01;4.68;;;2.00;;
82372;SDS011;72000;42.828;23.382;2024-01-27T09:13:27;4.72;;;1.98;;
82372;SDS011;72000;42.828;23.382;2024-01-27T09:15:53;6.68;;;2.30;;
82372;SDS011;72000;42.828;23.382;2024-01-27T09:18:18;5.15;;;1.85;;
82372;SDS011;72000;42.828;23.382;2024-01-27T09:20:44;4.82;;;1.90;;
82372;SDS011;72000;42.828;23.382;2024-01-27T09:23:10;4.82;;;1.95;;
82372;SDS011;72000;42.828;23.382;2024-01-27T09:25:35;3.42;;;1.52;;
82372;SDS011;72000;42.828;23.382;2024-01-27T09:28:01;3.55;;;1.58;;
82372;SDS011;72000;42.828;23.382;2024-01-27T09:30:27;3.60;;;1.50;;
82372;SDS011;72000;42.828;23.382;2024-01-27T09:32:52;3.60;;;1.55;;
82372;SDS011;72000;42.828;23.382;2024-01-27T09:35:18;3.95;;;1.45;;
82372;SDS011;72000;42.828;23.382;2024-01-27T09:37:43;3.72;;;1.77;;
82372;SDS011;72000;42.828;23.382;2024-01-27T09:40:11;2.95;;;1.30;;
82372;SDS011;72000;42.828;23.382;2024-01-27T09:42:37;4.93;;;1.80;;
82372;SDS011;72000;42.828;23.382;2024-01-27T09:45:04;4.75;;;1.90;;
82372;SDS011;72000;42.828;23.382;2024-01-27T09:47:30;5.00;;;1.85;;
82372;SDS011;72000;42.828;23.382;2024-01-27T09:49:56;5.85;;;2.08;;
82372;SDS011;72000;42.828;23.382;2024-01-27T09:52:22;4.60;;;2.05;;
82372;SDS011;72000;42.828;23.382;2024-01-27T09:54:48;5.15;;;2.33;;
82372;SDS011;72000;42.828;23.382;2024-01-27T09:57:13;3.63;;;1.70;;
82372;SDS011;72000;42.828;23.382;2024-01-27T09:59:42;4.28;;;1.90;;
82372;SDS011;72000;42.828;23.382;2024-01-27T10:02:11;5.13;;;1.92;;
82372;SDS011;72000;42.828;23.382;2024-01-27T10:04:37;3.53;;;1.60;;
82372;SDS011;72000;42.828;23.382;2024-01-27T10:07:04;3.97;;;1.52;;
82372;SDS011;72000;42.828;23.382;2024-01-27T10:09:29;5.35;;;1.48;;
82372;SDS011;72000;42.828;23.382;2024-01-27T10:11:55;3.65;;;1.60;;
82372;SDS011;72000;42.828;23.382;2024-01-27T10:14:21;3.42;;;1.65;;
82372;SDS011;72000;42.828;23.382;2024-01-27T10:16:46;3.20;;;1.40;;
82372;SDS011;72000;42.828;23.382;2024-01-27T10:19:16;3.42;;;1.50;;
82372;SDS011;72000;42.828;23.382;2024-01-27T10:21:46;4.57;;;1.88;;
82372;SDS011;72000;42.828;23.382;2024-01-27T10:24:12;3.22;;;1.45;;
82372;SDS011;72000;42.828;23.382;2024-01-27T10:26:37;2.25;;;1.00;;
82372;SDS011;72000;42.828;23.382;2024-01-27T10:29:03;2.78;;;1.40;;
82372;SDS011;72000;42.828;23.382;2024-01-27T10:31:29;4.00;;;1.70;;
82372;SDS011;72000;42.828;23.382;2024-01-27T10:33:56;3.83;;;1.60;;
82372;SDS011;72000;42.828;23.382;2024-01-27T10:36:22;3.42;;;1.27;;
82372;SDS011;72000;42.828;23.382;2024-01-27T10:38:48;4.25;;;1.85;;
82372;SDS011;72000;42.828;23.382;2024-01-27T10:41:18;3.47;;;1.50;;
82372;SDS011;72000;42.828;23.382;2024-01-27T10:43:48;4.00;;;1.73;;
82372;SDS011;72000;42.828;23.382;2024-01-27T10:46:15;3.15;;;1.60;;
82372;SDS011;72000;42.828;23.382;2024-01-27T10:48:44;3.20;;;1.23;;
82372;SDS011;72000;42.828;23.382;2024-01-27T10:51:16;3.13;;;1.48;;
82372;SDS011;72000;42.828;23.382;2024-01-27T10:53:47;3.33;;;1.48;;
82372;SDS011;72000;42.828;23.382;2024-01-27T10:56:14;2.80;;;1.40;;
82372;SDS011;72000;42.828;23.382;2024-01-27T10:58:40;3.20;;;1.50;;
82372;SDS011;72000;42.828;23.382;2024-01-27T11:01:10;3.08;;;1.50;;
82372;SDS011;72000;42.828;23.382;2024-01-27T11:03:38;3.05;;;1.48;;
82372;SDS011;72000;42.828;23.382;2024-01-27T11:06:05;2.88;;;1.40;;
82372;SDS011;72000;42.828;23.382;2024-01-27T11:08:32;2.85;;;1.40;;
82372;SDS011;72000;42.828;23.382;2024-01-27T11:10:58;2.80;;;1.40;;
82372;SDS011;72000;42.828;23.382;2024-01-27T11:13:25;3.55;;;1.40;;
82372;SDS011;72000;42.828;23.382;2024-01-27T11:15:54;2.90;;;1.20;;
82372;SDS011;72000;42.828;23.382;2024-01-27T11:18:20;3.22;;;1.40;;
82372;SDS011;72000;42.828;23.382;2024-01-27T11:20:46;3.20;;;1.38;;
82372;SDS011;72000;42.828;23.382;2024-01-27T11:23:12;3.15;;;1.30;;
82372;SDS011;72000;42.828;23.382;2024-01-27T11:25:39;2.45;;;1.25;;
82372;SDS011;72000;42.828;23.382;2024-01-27T11:28:11;2.75;;;1.30;;
82372;SDS011;72000;42.828;23.382;2024-01-27T11:30:39;2.28;;;1.15;;
82372;SDS011;72000;42.828;23.382;2024-01-27T11:33:05;2.17;;;1.23;;
82372;SDS011;72000;42.828;23.382;2024-01-27T11:35:33;3.13;;;1.40;;
82372;SDS011;72000;42.828;23.382;2024-01-27T11:38:00;3.25;;;1.70;;
82372;SDS011;72000;42.828;23.382;2024-01-27T11:40:25;3.55;;;1.83;;
82372;SDS011;72000;42.828;23.382;2024-01-27T11:42:58;4.22;;;2.00;;
82372;SDS011;72000;42.828;23.382;2024-01-27T11:45:25;3.55;;;1.70;;
82372;SDS011;72000;42.828;23.382;2024-01-27T11:47:52;3.50;;;1.70;;
82372;SDS011;72000;42.828;23.382;2024-01-27T11:50:18;4.05;;;1.73;;
82372;SDS011;72000;42.828;23.382;2024-01-27T11:52:44;3.60;;;1.75;;
82372;SDS011;72000;42.828;23.382;2024-01-27T11:55:09;3.63;;;1.63;;
82372;SDS011;72000;42.828;23.382;2024-01-27T11:57:35;5.75;;;2.03;;
82372;SDS011;72000;42.828;23.382;2024-01-27T12:00:00;5.65;;;1.90;;
82372;SDS011;72000;42.828;23.382;2024-01-27T12:02:26;3.38;;;1.70;;
82372;SDS011;72000;42.828;23.382;2024-01-27T12:04:52;4.65;;;1.80;;
82372;SDS011;72000;42.828;23.382;2024-01-27T12:07:18;3.55;;;1.60;;
82372;SDS011;72000;42.828;23.382;2024-01-27T12:09:44;4.88;;;1.75;;
82372;SDS011;72000;42.828;23.382;2024-01-27T12:12:10;4.00;;;1.80;;
82372;SDS011;72000;42.828;23.382;2024-01-27T12:14:41;3.47;;;1.63;;
82372;SDS011;72000;42.828;23.382;2024-01-27T12:17:09;3.03;;;1.60;;
82372;SDS011;72000;42.828;23.382;2024-01-27T12:19:35;3.72;;;1.50;;
82372;SDS011;72000;42.828;23.382;2024-01-27T12:22:01;3.00;;;1.45;;
82372;SDS011;72000;42.828;23.382;2024-01-27T12:24:27;4.05;;;1.50;;
82372;SDS011;72000;42.828;23.382;2024-01-27T12:26:54;3.42;;;1.50;;
82372;SDS011;72000;42.828;23.382;2024-01-27T12:29:22;3.83;;;1.77;;
82372;SDS011;72000;42.828;23.382;2024-01-27T12:31:48;3.47;;;1.73;;
82372;SDS011;72000;42.828;23.382;2024-01-27T12:34:14;2.75;;;1.38;;
82372;SDS011;72000;42.828;23.382;2024-01-27T12:36:42;2.65;;;1.40;;
82372;SDS011;72000;42.828;23.382;2024-01-27T12:39:08;2.35;;;0.98;;
82372;SDS011;72000;42.828;23.382;2024-01-27T12:41:34;3.13;;;1.60;;
82372;SDS011;72000;42.828;23.382;2024-01-27T12:44:00;3.08;;;1.60;;
82372;SDS011;72000;42.828;23.382;2024-01-27T12:46:26;3.60;;;1.38;;
82372;SDS011;72000;42.828;23.382;2024-01-27T12:48:52;3.38;;;1.58;;
82372;SDS011;72000;42.828;23.382;2024-01-27T12:51:18;3.83;;;1.90;;
82372;SDS011;72000;42.828;23.382;2024-01-27T12:53:44;5.07;;;1.52;;
82372;SDS011;72000;42.828;23.382;2024-01-27T12:56:10;3.75;;;1.70;;
82372;SDS011;72000;42.828;23.382;2024-01-27T12:58:37;3.88;;;1.35;;
82372;SDS011;72000;42.828;23.382;2024-01-27T13:01:03;2.67;;;1.17;;
82372;SDS011;72000;42.828;23.382;2024-01-27T13:03:29;2.90;;;1.50;;
82372;SDS011;72000;42.828;23.382;2024-01-27T13:05:55;2.35;;;1.20;;
82372;SDS011;72000;42.828;23.382;2024-01-27T13:08:21;3.58;;;1.70;;
82372;SDS011;72000;42.828;23.382;2024-01-27T13:10:47;3.90;;;1.50;;
82372;SDS011;72000;42.828;23.382;2024-01-27T13:13:13;2.65;;;1.20;;
82372;SDS011;72000;42.828;23.382;2024-01-27T13:15:38;4.13;;;1.60;;
82372;SDS011;72000;42.828;23.382;2024-01-27T13:18:04;3.03;;;1.33;;
82372;SDS011;72000;42.828;23.382;2024-01-27T13:20:30;3.17;;;1.55;;
82372;SDS011;72000;42.828;23.382;2024-01-27T13:22:56;2.50;;;1.20;;
82372;SDS011;72000;42.828;23.382;2024-01-27T13:25:21;3.88;;;1.40;;
82372;SDS011;72000;42.828;23.382;2024-01-27T13:27:48;2.55;;;1.20;;
82372;SDS011;72000;42.828;23.382;2024-01-27T13:30:13;2.60;;;1.20;;
82372;SDS011;72000;42.828;23.382;2024-01-27T13:32:39;3.95;;;1.15;;
82372;SDS011;72000;42.828;23.382;2024-01-27T13:35:05;2.63;;;1.17;;
82372;SDS011;72000;42.828;23.382;2024-01-27T13:37:33;3.17;;;1.20;;
82372;SDS011;72000;42.828;23.382;2024-01-27T13:39:59;3.42;;;1.30;;
82372;SDS011;72000;42.828;23.382;2024-01-27T13:42:25;3.08;;;1.10;;
82372;SDS011;72000;42.828;23.382;2024-01-27T13:44:51;2.60;;;1.23;;
82372;SDS011;72000;42.828;23.382;2024-01-27T13:47:17;2.50;;;1.08;;
82372;SDS011;72000;42.828;23.382;2024-01-27T13:49:43;2.97;;;1.30;;
82372;SDS011;72000;42.828;23.382;2024-01-27T13:52:08;2.65;;;1.20;;
82372;SDS011;72000;42.828;23.382;2024-01-27T14:12:52;4.35;;;1.50;;
82372;SDS011;72000;42.828;23.382;2024-01-27T14:15:18;2.42;;;1.10;;
82372;SDS011;72000;42.828;23.382;2024-01-27T14:17:44;2.95;;;1.00;;
82372;SDS011;72000;42.828;23.382;2024-01-27T14:20:10;2.63;;;1.00;;
82372;SDS011;72000;42.828;23.382;2024-01-27T14:22:37;1.83;;;0.85;;
82372;SDS011;72000;42.828;23.382;2024-01-27T14:25:03;3.33;;;1.10;;
82372;SDS011;72000;42.828;23.382;2024-01-27T14:27:29;1.65;;;0.90;;
82372;SDS011;72000;42.828;23.382;2024-01-27T14:29:55;2.67;;;1.00;;
82372;SDS011;72000;42.828;23.382;2024-01-27T14:32:21;5.05;;;1.30;;
82372;SDS011;72000;42.828;23.382;2024-01-27T14:34:47;1.67;;;0.90;;
82372;SDS011;72000;42.828;23.382;2024-01-27T14:37:13;2.20;;;0.95;;
82372;SDS011;72000;42.828;23.382;2024-01-27T14:39:44;2.60;;;1.10;;
82372;SDS011;72000;42.828;23.382;2024-01-27T14:42:11;1.90;;;0.90;;
82372;SDS011;72000;42.828;23.382;2024-01-27T14:44:42;2.65;;;1.00;;
82372;SDS011;72000;42.828;23.382;2024-01-27T14:47:10;2.83;;;0.98;;
82372;SDS011;72000;42.828;23.382;2024-01-27T14:49:36;2.50;;;1.20;;